sensor_id;sensor_type;location;lat;lon;timestamp;P1;durP1;ratioP1;P2;durP2;ratioP2
59476;SDS011;45713;49.766;6.592;2022-12-07T00:01:07;17.42;;;9.23;;
59476;SDS011;45713;49.766;6.592;2022-12-07T00:03:34;15.27;;;8.88;;
59476;SDS011;45713;49.766;6.592;2022-12-07T00:06:00;14.45;;;8.73;;
59476;SDS011;45713;49.766;6.592;2022-12-07T00:08:27;15.52;;;9.40;;
59476;SDS011;45713;49.766;6.592;2022-12-07T00:10:53;15.38;;;8.85;;
59476;SDS011;45713;49.766;6.592;2022-12-07T00:13:19;15.30;;;8.98;;
59476;SDS011;45713;49.766;6.592;2022-12-07T00:15:45;14.80;;;8.85;;
59476;SDS011;45713;49.766;6.592;2022-12-07T00:18:11;17.58;;;9.40;;
59476;SDS011;45713;49.766;6.592;2022-12-07T00:20:37;15.52;;;8.48;;
59476;SDS011;45713;49.766;6.592;2022-12-07T00:23:03;13.27;;;8.35;;
59476;SDS011;45713;49.766;6.592;2022-12-07T00:25:29;14.52;;;8.30;;
59476;SDS011;45713;49.766;6.592;2022-12-07T00:27:56;16.48;;;9.32;;
59476;SDS011;45713;49.766;6.592;2022-12-07T00:30:22;16.73;;;9.30;;
59476;SDS011;45713;49.766;6.592;2022-12-07T00:32:49;13.07;;;8.65;;
59476;SDS011;45713;49.766;6.592;2022-12-07T00:35:15;19.23;;;10.25;;
59476;SDS011;45713;49.766;6.592;2022-12-07T00:37:41;18.38;;;10.00;;
59476;SDS011;45713;49.766;6.592;2022-12-07T00:40:07;18.13;;;10.20;;
59476;SDS011;45713;49.766;6.592;2022-12-07T00:42:33;15.25;;;8.65;;
59476;SDS011;45713;49.766;6.592;2022-12-07T00:44:59;16.95;;;9.48;;
59476;SDS011;45713;49.766;6.592;2022-12-07T00:47:25;15.95;;;8.80;;
59476;SDS011;45713;49.766;6.592;2022-12-07T00:49:51;14.65;;;8.52;;
59476;SDS011;45713;49.766;6.592;2022-12-07T00:52:17;17.05;;;9.05;;
59476;SDS011;45713;49.766;6.592;2022-12-07T00:54:43;13.68;;;8.80;;
59476;SDS011;45713;49.766;6.592;2022-12-07T00:57:09;17.50;;;9.07;;
59476;SDS011;45713;49.766;6.592;2022-12-07T00:59:35;16.50;;;8.60;;
59476;SDS011;45713;49.766;6.592;2022-12-07T01:02:01;16.52;;;9.43;;
59476;SDS011;45713;49.766;6.592;2022-12-07T01:04:27;15.75;;;9.57;;
59476;SDS011;45713;49.766;6.592;2022-12-07T01:06:54;14.63;;;9.57;;
59476;SDS011;45713;49.766;6.592;2022-12-07T01:09:20;17.88;;;10.75;;
59476;SDS011;45713;49.766;6.592;2022-12-07T01:11:46;16.23;;;10.00;;
59476;SDS011;45713;49.766;6.592;2022-12-07T01:14:12;16.58;;;9.02;;
59476;SDS011;45713;49.766;6.592;2022-12-07T01:16:38;17.98;;;10.10;;
59476;SDS011;45713;49.766;6.592;2022-12-07T01:19:05;14.52;;;8.43;;
59476;SDS011;45713;49.766;6.592;2022-12-07T01:21:31;14.73;;;9.05;;
59476;SDS011;45713;49.766;6.592;2022-12-07T01:24:03;16.63;;;9.20;;
59476;SDS011;45713;49.766;6.592;2022-12-07T01:26:29;15.23;;;9.23;;
59476;SDS011;45713;49.766;6.592;2022-12-07T01:28:55;17.73;;;9.77;;
59476;SDS011;45713;49.766;6.592;2022-12-07T01:31:24;15.70;;;9.10;;
59476;SDS011;45713;49.766;6.592;2022-12-07T01:33:51;19.30;;;9.55;;
59476;SDS011;45713;49.766;6.592;2022-12-07T01:38:44;15.90;;;9.40;;
59476;SDS011;45713;49.766;6.592;2022-12-07T01:41:11;16.45;;;10.43;;
59476;SDS011;45713;49.766;6.592;2022-12-07T01:44:06;15.30;;;9.30;;
59476;SDS011;45713;49.766;6.592;2022-12-07T01:46:26;15.60;;;9.00;;
59476;SDS011;45713;49.766;6.592;2022-12-07T01:48:52;18.02;;;9.52;;
59476;SDS011;45713;49.766;6.592;2022-12-07T01:51:18;16.48;;;9.23;;
59476;SDS011;45713;49.766;6.592;2022-12-07T01:53:44;15.00;;;8.60;;
59476;SDS011;45713;49.766;6.592;2022-12-07T01:56:12;15.10;;;9.48;;
59476;SDS011;45713;49.766;6.592;2022-12-07T01:58:41;16.98;;;9.50;;
59476;SDS011;45713;49.766;6.592;2022-12-07T02:01:07;14.48;;;9.07;;
59476;SDS011;45713;49.766;6.592;2022-12-07T02:03:40;16.17;;;9.45;;
59476;SDS011;45713;49.766;6.592;2022-12-07T02:06:07;14.70;;;8.95;;
59476;SDS011;45713;49.766;6.592;2022-12-07T02:08:33;17.98;;;9.77;;
59476;SDS011;45713;49.766;6.592;2022-12-07T02:11:00;16.05;;;9.05;;
59476;SDS011;45713;49.766;6.592;2022-12-07T02:13:28;17.58;;;9.85;;
59476;SDS011;45713;49.766;6.592;2022-12-07T02:18:45;19.73;;;10.25;;
59476;SDS011;45713;49.766;6.592;2022-12-07T02:21:27;18.35;;;10.35;;
59476;SDS011;45713;49.766;6.592;2022-12-07T02:29:10;16.70;;;9.40;;
59476;SDS011;45713;49.766;6.592;2022-12-07T02:31:37;18.55;;;9.45;;
59476;SDS011;45713;49.766;6.592;2022-12-07T02:34:08;17.52;;;9.15;;
59476;SDS011;45713;49.766;6.592;2022-12-07T02:36:38;16.85;;;9.90;;
59476;SDS011;45713;49.766;6.592;2022-12-07T02:41:33;19.92;;;9.88;;
59476;SDS011;45713;49.766;6.592;2022-12-07T02:44:01;17.90;;;9.63;;
59476;SDS011;45713;49.766;6.592;2022-12-07T02:46:32;17.48;;;9.57;;
59476;SDS011;45713;49.766;6.592;2022-12-07T02:48:59;17.90;;;9.50;;
59476;SDS011;45713;49.766;6.592;2022-12-07T02:51:26;15.60;;;9.25;;
59476;SDS011;45713;49.766;6.592;2022-12-07T02:53:55;17.88;;;9.60;;
59476;SDS011;45713;49.766;6.592;2022-12-07T03:01:43;18.77;;;10.47;;
59476;SDS011;45713;49.766;6.592;2022-12-07T03:04:20;23.42;;;11.13;;
59476;SDS011;45713;49.766;6.592;2022-12-07T03:07:04;20.38;;;10.77;;
59476;SDS011;45713;49.766;6.592;2022-12-07T03:09:32;20.58;;;10.98;;
59476;SDS011;45713;49.766;6.592;2022-12-07T03:12:07;26.02;;;11.50;;
59476;SDS011;45713;49.766;6.592;2022-12-07T03:14:40;22.13;;;11.85;;
59476;SDS011;45713;49.766;6.592;2022-12-07T03:17:09;25.20;;;11.45;;
59476;SDS011;45713;49.766;6.592;2022-12-07T03:19:37;23.75;;;11.30;;
59476;SDS011;45713;49.766;6.592;2022-12-07T03:22:07;19.92;;;10.45;;
59476;SDS011;45713;49.766;6.592;2022-12-07T03:24:35;20.40;;;10.60;;
59476;SDS011;45713;49.766;6.592;2022-12-07T03:27:03;21.17;;;10.63;;
59476;SDS011;45713;49.766;6.592;2022-12-07T03:29:33;22.58;;;11.50;;
59476;SDS011;45713;49.766;6.592;2022-12-07T03:32:02;20.98;;;9.85;;
59476;SDS011;45713;49.766;6.592;2022-12-07T03:36:57;21.73;;;10.32;;
59476;SDS011;45713;49.766;6.592;2022-12-07T03:41:52;19.08;;;9.75;;
59476;SDS011;45713;49.766;6.592;2022-12-07T03:44:18;21.73;;;11.13;;
59476;SDS011;45713;49.766;6.592;2022-12-07T03:49:25;22.17;;;11.40;;
59476;SDS011;45713;49.766;6.592;2022-12-07T03:51:57;20.25;;;11.13;;
59476;SDS011;45713;49.766;6.592;2022-12-07T03:54:28;21.45;;;10.07;;
59476;SDS011;45713;49.766;6.592;2022-12-07T03:56:55;22.17;;;11.88;;
59476;SDS011;45713;49.766;6.592;2022-12-07T03:59:22;16.00;;;9.40;;
59476;SDS011;45713;49.766;6.592;2022-12-07T04:01:52;18.80;;;10.50;;
59476;SDS011;45713;49.766;6.592;2022-12-07T04:04:19;19.20;;;10.57;;
59476;SDS011;45713;49.766;6.592;2022-12-07T04:06:45;21.75;;;10.57;;
59476;SDS011;45713;49.766;6.592;2022-12-07T04:09:11;20.88;;;10.23;;
59476;SDS011;45713;49.766;6.592;2022-12-07T04:11:39;18.90;;;10.88;;
59476;SDS011;45713;49.766;6.592;2022-12-07T04:14:05;21.25;;;10.25;;
59476;SDS011;45713;49.766;6.592;2022-12-07T04:16:52;20.38;;;11.27;;
59476;SDS011;45713;49.766;6.592;2022-12-07T04:19:22;20.92;;;11.13;;
59476;SDS011;45713;49.766;6.592;2022-12-07T04:21:48;21.35;;;10.48;;
59476;SDS011;45713;49.766;6.592;2022-12-07T04:24:14;22.30;;;10.63;;
59476;SDS011;45713;49.766;6.592;2022-12-07T04:26:41;19.60;;;10.88;;
59476;SDS011;45713;49.766;6.592;2022-12-07T04:29:08;19.52;;;10.63;;
59476;SDS011;45713;49.766;6.592;2022-12-07T04:31:34;19.58;;;11.07;;
59476;SDS011;45713;49.766;6.592;2022-12-07T04:34:00;24.70;;;11.45;;
59476;SDS011;45713;49.766;6.592;2022-12-07T04:36:26;21.95;;;11.18;;
59476;SDS011;45713;49.766;6.592;2022-12-07T04:38:53;19.23;;;10.65;;
59476;SDS011;45713;49.766;6.592;2022-12-07T04:41:20;19.50;;;10.70;;
59476;SDS011;45713;49.766;6.592;2022-12-07T04:43:52;20.08;;;10.75;;
59476;SDS011;45713;49.766;6.592;2022-12-07T04:46:18;20.10;;;11.00;;
59476;SDS011;45713;49.766;6.592;2022-12-07T04:48:44;21.63;;;10.73;;
59476;SDS011;45713;49.766;6.592;2022-12-07T04:51:10;21.90;;;11.55;;
59476;SDS011;45713;49.766;6.592;2022-12-07T04:53:36;20.52;;;12.18;;
59476;SDS011;45713;49.766;6.592;2022-12-07T04:56:02;20.10;;;11.93;;
59476;SDS011;45713;49.766;6.592;2022-12-07T04:58:28;19.40;;;11.60;;
59476;SDS011;45713;49.766;6.592;2022-12-07T05:00:54;19.73;;;10.70;;
59476;SDS011;45713;49.766;6.592;2022-12-07T05:03:20;19.77;;;11.07;;
59476;SDS011;45713;49.766;6.592;2022-12-07T05:05:46;21.42;;;10.80;;
59476;SDS011;45713;49.766;6.592;2022-12-07T05:08:12;21.15;;;10.88;;
59476;SDS011;45713;49.766;6.592;2022-12-07T05:10:38;22.50;;;11.15;;
59476;SDS011;45713;49.766;6.592;2022-12-07T05:13:04;20.58;;;11.98;;
59476;SDS011;45713;49.766;6.592;2022-12-07T05:15:30;22.02;;;10.77;;
59476;SDS011;45713;49.766;6.592;2022-12-07T05:17:56;20.50;;;10.68;;
59476;SDS011;45713;49.766;6.592;2022-12-07T05:20:22;19.92;;;12.25;;
59476;SDS011;45713;49.766;6.592;2022-12-07T05:22:48;20.58;;;11.27;;
59476;SDS011;45713;49.766;6.592;2022-12-07T05:25:14;20.25;;;10.93;;
59476;SDS011;45713;49.766;6.592;2022-12-07T05:27:40;20.55;;;11.50;;
59476;SDS011;45713;49.766;6.592;2022-12-07T05:30:06;26.23;;;12.27;;
59476;SDS011;45713;49.766;6.592;2022-12-07T05:32:32;20.05;;;11.23;;
59476;SDS011;45713;49.766;6.592;2022-12-07T05:34:58;19.73;;;10.57;;
59476;SDS011;45713;49.766;6.592;2022-12-07T05:37:24;24.40;;;12.38;;
59476;SDS011;45713;49.766;6.592;2022-12-07T05:39:50;21.45;;;11.52;;
59476;SDS011;45713;49.766;6.592;2022-12-07T05:42:16;23.73;;;11.95;;
59476;SDS011;45713;49.766;6.592;2022-12-07T05:44:43;21.25;;;12.02;;
59476;SDS011;45713;49.766;6.592;2022-12-07T05:47:10;21.70;;;11.38;;
59476;SDS011;45713;49.766;6.592;2022-12-07T05:49:36;20.25;;;12.07;;
59476;SDS011;45713;49.766;6.592;2022-12-07T05:52:02;24.25;;;12.85;;
59476;SDS011;45713;49.766;6.592;2022-12-07T05:54:28;22.83;;;11.75;;
59476;SDS011;45713;49.766;6.592;2022-12-07T05:56:54;20.98;;;11.32;;
59476;SDS011;45713;49.766;6.592;2022-12-07T05:59:21;21.85;;;11.93;;
59476;SDS011;45713;49.766;6.592;2022-12-07T06:04:16;25.27;;;13.73;;
59476;SDS011;45713;49.766;6.592;2022-12-07T06:06:42;24.13;;;12.85;;
59476;SDS011;45713;49.766;6.592;2022-12-07T06:09:08;26.35;;;13.30;;
59476;SDS011;45713;49.766;6.592;2022-12-07T06:11:34;23.27;;;12.40;;
59476;SDS011;45713;49.766;6.592;2022-12-07T06:14:19;27.65;;;13.65;;
59476;SDS011;45713;49.766;6.592;2022-12-07T06:16:45;24.13;;;12.57;;
59476;SDS011;45713;49.766;6.592;2022-12-07T06:19:11;25.25;;;13.00;;
59476;SDS011;45713;49.766;6.592;2022-12-07T06:21:37;24.98;;;12.15;;
59476;SDS011;45713;49.766;6.592;2022-12-07T06:24:03;22.13;;;12.20;;
59476;SDS011;45713;49.766;6.592;2022-12-07T06:26:30;23.10;;;13.32;;
59476;SDS011;45713;49.766;6.592;2022-12-07T06:28:56;24.33;;;12.80;;
59476;SDS011;45713;49.766;6.592;2022-12-07T06:31:22;22.08;;;12.20;;
59476;SDS011;45713;49.766;6.592;2022-12-07T06:33:48;24.13;;;11.55;;
59476;SDS011;45713;49.766;6.592;2022-12-07T06:36:14;25.02;;;13.55;;
59476;SDS011;45713;49.766;6.592;2022-12-07T06:38:40;25.23;;;13.82;;
59476;SDS011;45713;49.766;6.592;2022-12-07T06:41:06;26.85;;;14.57;;
59476;SDS011;45713;49.766;6.592;2022-12-07T06:43:32;23.65;;;12.85;;
59476;SDS011;45713;49.766;6.592;2022-12-07T06:45:58;24.95;;;12.75;;
59476;SDS011;45713;49.766;6.592;2022-12-07T06:48:24;23.58;;;12.73;;
59476;SDS011;45713;49.766;6.592;2022-12-07T06:50:50;24.15;;;12.60;;
59476;SDS011;45713;49.766;6.592;2022-12-07T06:53:16;25.83;;;12.77;;
59476;SDS011;45713;49.766;6.592;2022-12-07T06:55:45;24.60;;;12.55;;
59476;SDS011;45713;49.766;6.592;2022-12-07T06:58:10;27.52;;;14.38;;
59476;SDS011;45713;49.766;6.592;2022-12-07T07:00:36;22.50;;;11.88;;
59476;SDS011;45713;49.766;6.592;2022-12-07T07:03:02;26.20;;;13.65;;
59476;SDS011;45713;49.766;6.592;2022-12-07T07:05:28;23.90;;;12.95;;
59476;SDS011;45713;49.766;6.592;2022-12-07T07:07:55;22.80;;;11.75;;
59476;SDS011;45713;49.766;6.592;2022-12-07T07:10:21;21.23;;;12.68;;
59476;SDS011;45713;49.766;6.592;2022-12-07T07:12:46;18.48;;;11.00;;
59476;SDS011;45713;49.766;6.592;2022-12-07T07:15:12;23.85;;;11.60;;
59476;SDS011;45713;49.766;6.592;2022-12-07T07:17:38;22.60;;;12.13;;
59476;SDS011;45713;49.766;6.592;2022-12-07T07:20:05;25.13;;;14.00;;
59476;SDS011;45713;49.766;6.592;2022-12-07T07:22:31;24.20;;;14.45;;
59476;SDS011;45713;49.766;6.592;2022-12-07T07:24:57;27.63;;;15.52;;
59476;SDS011;45713;49.766;6.592;2022-12-07T07:27:23;22.35;;;13.00;;
59476;SDS011;45713;49.766;6.592;2022-12-07T07:29:49;23.65;;;13.10;;
59476;SDS011;45713;49.766;6.592;2022-12-07T07:32:15;24.75;;;12.93;;
59476;SDS011;45713;49.766;6.592;2022-12-07T07:34:41;19.27;;;12.40;;
59476;SDS011;45713;49.766;6.592;2022-12-07T07:37:07;22.17;;;12.05;;
59476;SDS011;45713;49.766;6.592;2022-12-07T07:39:33;25.13;;;12.00;;
59476;SDS011;45713;49.766;6.592;2022-12-07T07:41:59;24.83;;;11.88;;
59476;SDS011;45713;49.766;6.592;2022-12-07T07:44:25;24.48;;;11.88;;
59476;SDS011;45713;49.766;6.592;2022-12-07T07:46:51;21.77;;;12.25;;
59476;SDS011;45713;49.766;6.592;2022-12-07T07:49:17;22.67;;;11.93;;
59476;SDS011;45713;49.766;6.592;2022-12-07T07:51:43;21.92;;;11.85;;
59476;SDS011;45713;49.766;6.592;2022-12-07T07:54:09;24.10;;;11.85;;
59476;SDS011;45713;49.766;6.592;2022-12-07T07:56:35;21.48;;;12.10;;
59476;SDS011;45713;49.766;6.592;2022-12-07T07:59:01;20.00;;;11.20;;
59476;SDS011;45713;49.766;6.592;2022-12-07T08:01:27;21.77;;;12.70;;
59476;SDS011;45713;49.766;6.592;2022-12-07T08:03:53;22.25;;;12.93;;
59476;SDS011;45713;49.766;6.592;2022-12-07T08:06:19;23.65;;;12.10;;
59476;SDS011;45713;49.766;6.592;2022-12-07T08:08:45;22.25;;;11.90;;
59476;SDS011;45713;49.766;6.592;2022-12-07T08:11:11;19.88;;;11.00;;
59476;SDS011;45713;49.766;6.592;2022-12-07T08:13:37;21.15;;;10.85;;
59476;SDS011;45713;49.766;6.592;2022-12-07T08:16:03;19.98;;;10.57;;
59476;SDS011;45713;49.766;6.592;2022-12-07T08:18:30;20.10;;;10.85;;
59476;SDS011;45713;49.766;6.592;2022-12-07T08:21:00;17.95;;;10.25;;
59476;SDS011;45713;49.766;6.592;2022-12-07T08:23:26;23.63;;;11.50;;
59476;SDS011;45713;49.766;6.592;2022-12-07T08:25:52;23.35;;;12.20;;
59476;SDS011;45713;49.766;6.592;2022-12-07T08:28:18;22.35;;;11.07;;
59476;SDS011;45713;49.766;6.592;2022-12-07T08:30:44;19.88;;;10.68;;
59476;SDS011;45713;49.766;6.592;2022-12-07T08:33:10;21.20;;;11.15;;
59476;SDS011;45713;49.766;6.592;2022-12-07T08:35:36;22.50;;;11.52;;
59476;SDS011;45713;49.766;6.592;2022-12-07T08:38:02;21.40;;;12.30;;
59476;SDS011;45713;49.766;6.592;2022-12-07T08:40:28;21.05;;;11.85;;
59476;SDS011;45713;49.766;6.592;2022-12-07T08:42:55;22.80;;;12.25;;
59476;SDS011;45713;49.766;6.592;2022-12-07T08:45:21;19.98;;;11.85;;
59476;SDS011;45713;49.766;6.592;2022-12-07T08:47:52;23.83;;;12.18;;
59476;SDS011;45713;49.766;6.592;2022-12-07T08:50:20;22.55;;;11.57;;
59476;SDS011;45713;49.766;6.592;2022-12-07T08:52:54;20.13;;;11.15;;
59476;SDS011;45713;49.766;6.592;2022-12-07T08:55:20;20.75;;;11.23;;
59476;SDS011;45713;49.766;6.592;2022-12-07T08:57:46;19.92;;;9.77;;
59476;SDS011;45713;49.766;6.592;2022-12-07T09:00:12;20.13;;;11.20;;
59476;SDS011;45713;49.766;6.592;2022-12-07T09:02:39;18.20;;;9.52;;
59476;SDS011;45713;49.766;6.592;2022-12-07T09:05:05;21.02;;;11.00;;
59476;SDS011;45713;49.766;6.592;2022-12-07T09:07:32;16.77;;;9.07;;
59476;SDS011;45713;49.766;6.592;2022-12-07T09:09:58;19.40;;;10.05;;
59476;SDS011;45713;49.766;6.592;2022-12-07T09:12:24;17.23;;;10.00;;
59476;SDS011;45713;49.766;6.592;2022-12-07T09:14:50;17.00;;;8.82;;
59476;SDS011;45713;49.766;6.592;2022-12-07T09:17:16;17.33;;;9.95;;
59476;SDS011;45713;49.766;6.592;2022-12-07T09:19:42;20.15;;;10.25;;
59476;SDS011;45713;49.766;6.592;2022-12-07T09:22:08;17.70;;;10.85;;
59476;SDS011;45713;49.766;6.592;2022-12-07T09:24:34;17.48;;;10.77;;
59476;SDS011;45713;49.766;6.592;2022-12-07T09:27:00;17.95;;;9.75;;
59476;SDS011;45713;49.766;6.592;2022-12-07T09:29:26;16.90;;;9.27;;
59476;SDS011;45713;49.766;6.592;2022-12-07T09:31:52;16.33;;;9.23;;
59476;SDS011;45713;49.766;6.592;2022-12-07T09:34:19;16.33;;;9.48;;
59476;SDS011;45713;49.766;6.592;2022-12-07T09:36:45;13.43;;;7.03;;
59476;SDS011;45713;49.766;6.592;2022-12-07T09:39:11;14.55;;;7.55;;
59476;SDS011;45713;49.766;6.592;2022-12-07T09:41:38;12.85;;;7.78;;
59476;SDS011;45713;49.766;6.592;2022-12-07T09:44:06;13.75;;;7.05;;
59476;SDS011;45713;49.766;6.592;2022-12-07T09:46:36;13.30;;;6.85;;
59476;SDS011;45713;49.766;6.592;2022-12-07T09:49:03;11.05;;;6.45;;
59476;SDS011;45713;49.766;6.592;2022-12-07T09:51:29;11.52;;;6.75;;
59476;SDS011;45713;49.766;6.592;2022-12-07T09:53:56;12.80;;;6.55;;
59476;SDS011;45713;49.766;6.592;2022-12-07T09:56:23;10.02;;;6.75;;
59476;SDS011;45713;49.766;6.592;2022-12-07T09:58:49;17.77;;;9.10;;
59476;SDS011;45713;49.766;6.592;2022-12-07T10:01:17;13.60;;;7.65;;
59476;SDS011;45713;49.766;6.592;2022-12-07T10:06:15;13.50;;;7.72;;
59476;SDS011;45713;49.766;6.592;2022-12-07T10:08:41;13.73;;;7.55;;
59476;SDS011;45713;49.766;6.592;2022-12-07T10:11:08;12.55;;;8.20;;
59476;SDS011;45713;49.766;6.592;2022-12-07T10:13:46;11.93;;;7.50;;
59476;SDS011;45713;49.766;6.592;2022-12-07T10:16:35;14.35;;;7.03;;
59476;SDS011;45713;49.766;6.592;2022-12-07T10:19:21;17.00;;;7.50;;
59476;SDS011;45713;49.766;6.592;2022-12-07T10:22:01;11.25;;;6.38;;
59476;SDS011;45713;49.766;6.592;2022-12-07T10:24:28;10.93;;;6.43;;
59476;SDS011;45713;49.766;6.592;2022-12-07T10:26:54;9.75;;;6.00;;
59476;SDS011;45713;49.766;6.592;2022-12-07T10:29:38;12.10;;;6.90;;
59476;SDS011;45713;49.766;6.592;2022-12-07T10:34:40;13.45;;;7.60;;
59476;SDS011;45713;49.766;6.592;2022-12-07T10:42:20;11.07;;;6.53;;
59476;SDS011;45713;49.766;6.592;2022-12-07T10:44:47;12.00;;;7.20;;
59476;SDS011;45713;49.766;6.592;2022-12-07T10:50:00;14.55;;;7.78;;
59476;SDS011;45713;49.766;6.592;2022-12-07T10:52:45;12.70;;;6.95;;
59476;SDS011;45713;49.766;6.592;2022-12-07T11:00:23;14.13;;;7.87;;
59476;SDS011;45713;49.766;6.592;2022-12-07T11:08:15;13.55;;;6.90;;
59476;SDS011;45713;49.766;6.592;2022-12-07T11:13:16;11.85;;;7.30;;
59476;SDS011;45713;49.766;6.592;2022-12-07T11:15:59;15.82;;;7.97;;
59476;SDS011;45713;49.766;6.592;2022-12-07T11:18:29;14.40;;;7.07;;
59476;SDS011;45713;49.766;6.592;2022-12-07T11:23:39;13.77;;;6.85;;
59476;SDS011;45713;49.766;6.592;2022-12-07T11:31:18;12.77;;;6.60;;
59476;SDS011;45713;49.766;6.592;2022-12-07T11:39:03;9.23;;;5.47;;
59476;SDS011;45713;49.766;6.592;2022-12-07T11:41:32;8.30;;;5.18;;
59476;SDS011;45713;49.766;6.592;2022-12-07T11:46:40;13.15;;;6.10;;
59476;SDS011;45713;49.766;6.592;2022-12-07T11:49:10;8.15;;;5.00;;
59476;SDS011;45713;49.766;6.592;2022-12-07T11:51:38;10.40;;;5.57;;
59476;SDS011;45713;49.766;6.592;2022-12-07T11:54:14;8.52;;;5.10;;
59476;SDS011;45713;49.766;6.592;2022-12-07T11:56:41;9.50;;;5.35;;
59476;SDS011;45713;49.766;6.592;2022-12-07T12:06:35;9.02;;;5.38;;
59476;SDS011;45713;49.766;6.592;2022-12-07T12:09:15;10.43;;;5.35;;
59476;SDS011;45713;49.766;6.592;2022-12-07T12:19:16;11.43;;;5.47;;
59476;SDS011;45713;49.766;6.592;2022-12-07T12:21:43;8.15;;;5.15;;
59476;SDS011;45713;49.766;6.592;2022-12-07T12:24:13;8.30;;;4.82;;
59476;SDS011;45713;49.766;6.592;2022-12-07T12:26:40;8.73;;;5.22;;
59476;SDS011;45713;49.766;6.592;2022-12-07T12:29:21;7.72;;;4.63;;
59476;SDS011;45713;49.766;6.592;2022-12-07T12:32:12;13.63;;;6.20;;
59476;SDS011;45713;49.766;6.592;2022-12-07T12:34:40;11.38;;;6.25;;
59476;SDS011;45713;49.766;6.592;2022-12-07T12:47:53;9.68;;;5.38;;
59476;SDS011;45713;49.766;6.592;2022-12-07T12:50:20;10.65;;;5.25;;
59476;SDS011;45713;49.766;6.592;2022-12-07T12:52:49;8.00;;;4.93;;
59476;SDS011;45713;49.766;6.592;2022-12-07T12:55:17;10.30;;;5.35;;
59476;SDS011;45713;49.766;6.592;2022-12-07T12:57:46;9.85;;;4.57;;
59476;SDS011;45713;49.766;6.592;2022-12-07T13:02:54;6.90;;;4.28;;
59476;SDS011;45713;49.766;6.592;2022-12-07T13:05:21;8.43;;;4.72;;
59476;SDS011;45713;49.766;6.592;2022-12-07T13:07:53;7.15;;;4.40;;
59476;SDS011;45713;49.766;6.592;2022-12-07T13:18:03;5.95;;;3.78;;
59476;SDS011;45713;49.766;6.592;2022-12-07T13:23:10;8.05;;;4.03;;
59476;SDS011;45713;49.766;6.592;2022-12-07T13:25:41;7.72;;;3.80;;
59476;SDS011;45713;49.766;6.592;2022-12-07T13:28:15;8.07;;;3.95;;
59476;SDS011;45713;49.766;6.592;2022-12-07T13:30:44;7.47;;;3.97;;
59476;SDS011;45713;49.766;6.592;2022-12-07T13:33:11;7.97;;;3.80;;
59476;SDS011;45713;49.766;6.592;2022-12-07T13:35:38;7.32;;;4.55;;
59476;SDS011;45713;49.766;6.592;2022-12-07T13:38:05;5.85;;;3.88;;
59476;SDS011;45713;49.766;6.592;2022-12-07T13:40:32;4.85;;;3.55;;
59476;SDS011;45713;49.766;6.592;2022-12-07T13:42:59;5.93;;;3.97;;
59476;SDS011;45713;49.766;6.592;2022-12-07T13:45:28;5.18;;;3.67;;
59476;SDS011;45713;49.766;6.592;2022-12-07T13:48:14;7.72;;;3.70;;
59476;SDS011;45713;49.766;6.592;2022-12-07T13:50:41;5.75;;;3.47;;
59476;SDS011;45713;49.766;6.592;2022-12-07T13:53:11;6.35;;;3.70;;
59476;SDS011;45713;49.766;6.592;2022-12-07T13:55:43;6.20;;;3.80;;
59476;SDS011;45713;49.766;6.592;2022-12-07T13:58:09;6.03;;;3.60;;
59476;SDS011;45713;49.766;6.592;2022-12-07T14:00:35;6.65;;;3.95;;
59476;SDS011;45713;49.766;6.592;2022-12-07T14:03:21;5.80;;;4.05;;
59476;SDS011;45713;49.766;6.592;2022-12-07T14:06:02;10.80;;;3.70;;
59476;SDS011;45713;49.766;6.592;2022-12-07T14:08:29;5.72;;;3.92;;
59476;SDS011;45713;49.766;6.592;2022-12-07T14:10:55;4.32;;;3.28;;
59476;SDS011;45713;49.766;6.592;2022-12-07T14:16:01;6.63;;;3.88;;
59476;SDS011;45713;49.766;6.592;2022-12-07T14:23:35;7.47;;;4.63;;
59476;SDS011;45713;49.766;6.592;2022-12-07T14:26:07;8.38;;;4.70;;
59476;SDS011;45713;49.766;6.592;2022-12-07T14:28:35;5.53;;;3.72;;
59476;SDS011;45713;49.766;6.592;2022-12-07T14:31:01;5.60;;;3.70;;
59476;SDS011;45713;49.766;6.592;2022-12-07T14:33:28;6.10;;;3.60;;
59476;SDS011;45713;49.766;6.592;2022-12-07T14:35:54;7.57;;;4.15;;
59476;SDS011;45713;49.766;6.592;2022-12-07T14:38:22;11.45;;;5.45;;
59476;SDS011;45713;49.766;6.592;2022-12-07T14:40:49;6.63;;;4.55;;
59476;SDS011;45713;49.766;6.592;2022-12-07T14:43:16;6.60;;;3.90;;
59476;SDS011;45713;49.766;6.592;2022-12-07T14:45:42;11.10;;;4.40;;
59476;SDS011;45713;49.766;6.592;2022-12-07T14:48:12;9.90;;;3.92;;
59476;SDS011;45713;49.766;6.592;2022-12-07T14:50:40;8.15;;;4.22;;
59476;SDS011;45713;49.766;6.592;2022-12-07T14:53:10;9.05;;;4.93;;
59476;SDS011;45713;49.766;6.592;2022-12-07T14:55:38;6.78;;;4.10;;
59476;SDS011;45713;49.766;6.592;2022-12-07T14:58:04;7.88;;;4.60;;
59476;SDS011;45713;49.766;6.592;2022-12-07T15:00:30;8.38;;;4.68;;
59476;SDS011;45713;49.766;6.592;2022-12-07T15:02:57;8.77;;;4.38;;
59476;SDS011;45713;49.766;6.592;2022-12-07T15:05:23;7.20;;;4.22;;
59476;SDS011;45713;49.766;6.592;2022-12-07T15:07:49;8.65;;;4.68;;
59476;SDS011;45713;49.766;6.592;2022-12-07T15:10:22;9.95;;;5.70;;
59476;SDS011;45713;49.766;6.592;2022-12-07T15:12:48;10.80;;;6.70;;
59476;SDS011;45713;49.766;6.592;2022-12-07T15:15:15;8.30;;;5.55;;
59476;SDS011;45713;49.766;6.592;2022-12-07T15:17:42;9.43;;;5.55;;
59476;SDS011;45713;49.766;6.592;2022-12-07T15:20:10;9.60;;;5.25;;
59476;SDS011;45713;49.766;6.592;2022-12-07T15:22:37;9.20;;;5.10;;
59476;SDS011;45713;49.766;6.592;2022-12-07T15:25:03;9.88;;;6.00;;
59476;SDS011;45713;49.766;6.592;2022-12-07T15:27:30;9.75;;;5.50;;
59476;SDS011;45713;49.766;6.592;2022-12-07T15:29:56;9.57;;;5.50;;
59476;SDS011;45713;49.766;6.592;2022-12-07T15:32:22;10.15;;;5.53;;
59476;SDS011;45713;49.766;6.592;2022-12-07T15:34:48;7.93;;;4.90;;
59476;SDS011;45713;49.766;6.592;2022-12-07T15:37:15;10.90;;;5.00;;
59476;SDS011;45713;49.766;6.592;2022-12-07T15:39:41;8.82;;;5.18;;
59476;SDS011;45713;49.766;6.592;2022-12-07T15:42:07;8.15;;;4.53;;
59476;SDS011;45713;49.766;6.592;2022-12-07T15:44:33;8.90;;;5.05;;
59476;SDS011;45713;49.766;6.592;2022-12-07T15:47:29;8.07;;;5.00;;
59476;SDS011;45713;49.766;6.592;2022-12-07T15:49:55;7.82;;;4.90;;
59476;SDS011;45713;49.766;6.592;2022-12-07T15:52:21;11.07;;;5.35;;
59476;SDS011;45713;49.766;6.592;2022-12-07T15:54:47;8.18;;;5.25;;
59476;SDS011;45713;49.766;6.592;2022-12-07T15:57:13;7.95;;;5.18;;
59476;SDS011;45713;49.766;6.592;2022-12-07T15:59:39;7.60;;;4.65;;
59476;SDS011;45713;49.766;6.592;2022-12-07T16:02:05;7.80;;;4.30;;
59476;SDS011;45713;49.766;6.592;2022-12-07T16:04:31;7.55;;;4.82;;
59476;SDS011;45713;49.766;6.592;2022-12-07T16:06:57;8.70;;;4.50;;
59476;SDS011;45713;49.766;6.592;2022-12-07T16:09:23;7.05;;;4.97;;
59476;SDS011;45713;49.766;6.592;2022-12-07T16:11:50;12.10;;;5.20;;
59476;SDS011;45713;49.766;6.592;2022-12-07T16:14:17;8.68;;;6.25;;
59476;SDS011;45713;49.766;6.592;2022-12-07T16:16:43;13.93;;;10.25;;
59476;SDS011;45713;49.766;6.592;2022-12-07T16:19:09;9.23;;;5.30;;
59476;SDS011;45713;49.766;6.592;2022-12-07T16:21:36;10.48;;;6.18;;
59476;SDS011;45713;49.766;6.592;2022-12-07T16:24:02;8.65;;;5.82;;
59476;SDS011;45713;49.766;6.592;2022-12-07T16:26:30;10.68;;;5.85;;
59476;SDS011;45713;49.766;6.592;2022-12-07T16:28:56;10.73;;;6.00;;
59476;SDS011;45713;49.766;6.592;2022-12-07T16:31:22;9.35;;;6.43;;